Time;durP1;ratioP1;P1;durP2;ratioP2;P2;SDS_P1;SDS_P2;PMS_P1;PMS_P2;Temp;Humidity;BMP_temperature;BMP_pressure;BME280_temperature;BME280_humidity;BME280_pressure;Samples;Min_cycle;Max_cycle;Signal;HPM_P1;HPM_P2
2022/09/01 06:59:41;;;;;;;17.77;15.97;;;21.60;24.60;;;;;;5074032;23;20443;-85
2022/09/01 07:02:08;;;;;;;19.67;17.37;;;21.40;25.90;;;;;;5033376;28;20985;-69
2022/09/01 07:04:38;;;;;;;18.37;16.47;;;21.60;26.10;;;;;;5068063;28;20477;-68
2022/09/01 07:07:06;;;;;;;16.67;14.87;;;22.60;26.00;;;;;;5081770;28;20695;-67
2022/09/01 07:09:33;;;;;;;16.67;15.00;;;24.40;20.30;;;;;;5073315;28;20983;-68
2022/09/01 07:12:02;;;;;;;15.67;14.07;;;25.80;17.70;;;;;;5084299;28;20456;-68
2022/09/01 07:14:30;;;;;;;16.10;13.87;;;27.20;12.30;;;;;;5080989;28;21029;-67
2022/09/01 07:16:58;;;;;;;14.90;13.07;;;26.70;12.20;;;;;;5083946;28;20452;-68
2022/09/01 07:19:25;;;;;;;13.63;12.23;;;26.20;12.80;;;;;;5084969;28;20452;-67
2022/09/01 07:21:54;;;;;;;13.93;12.53;;;25.40;13.50;;;;;;5079756;28;20477;-67
2022/09/01 07:24:21;;;;;;;13.83;12.43;;;24.80;14.80;;;;;;5079883;28;20493;-68
2022/09/01 07:26:49;;;;;;;13.17;11.80;;;24.30;15.80;;;;;;5090502;28;20455;-70
2022/09/01 07:29:21;;;;;;;11.90;10.70;;;23.90;16.10;;;;;;5080528;28;20508;-68
2022/09/01 07:31:49;;;;;;;12.73;10.80;;;23.80;16.70;;;;;;5083279;28;20479;-68
2022/09/01 07:34:17;;;;;;;12.60;10.63;;;23.80;16.70;;;;;;5086041;28;20507;-68
2022/09/01 07:36:45;;;;;;;10.63;9.47;;;24.50;16.00;;;;;;5088022;28;20859;-68
2022/09/01 07:39:13;;;;;;;12.67;9.63;;;24.40;14.80;;;;;;5085003;28;20471;-67
2022/09/01 07:41:41;;;;;;;9.27;7.40;;;24.80;14.30;;;;;;5088056;28;20567;-67
2022/09/01 07:44:12;;;;;;;10.00;7.60;;;25.20;12.90;;;;;;5086791;28;20563;-68
2022/09/01 07:46:40;;;;;;;10.00;8.83;;;25.00;13.60;;;;;;5082627;28;20479;-68
2022/09/01 07:49:07;;;;;;;11.33;8.93;;;24.80;13.80;;;;;;5082458;28;20538;-67
2022/09/01 07:51:35;;;;;;;10.47;9.17;;;24.20;14.40;;;;;;5087874;28;20805;-67
2022/09/01 07:54:03;;;;;;;12.10;8.30;;;23.60;15.30;;;;;;5082864;28;20498;-69
2022/09/01 07:56:30;;;;;;;10.67;8.60;;;23.20;15.80;;;;;;5080558;28;20453;-68
2022/09/01 07:58:58;;;;;;;9.97;8.60;;;22.60;16.80;;;;;;5080274;28;20461;-67
2022/09/01 08:01:27;;;;;;;11.17;9.57;;;22.10;18.40;;;;;;5078205;28;20478;-67
2022/09/01 08:03:56;;;;;;;12.23;10.00;;;21.80;19.20;;;;;;5076238;28;20513;-68
2022/09/01 08:06:25;;;;;;;9.07;7.83;;;21.50;19.70;;;;;;5086358;28;20578;-68
2022/09/01 08:08:55;;;;;;;11.93;8.63;;;21.30;20.60;;;;;;5088288;28;20456;-66
2022/09/01 08:11:24;;;;;;;10.13;8.13;;;21.70;21.30;;;;;;5078200;28;20444;-67
2022/09/01 08:13:53;;;;;;;10.50;8.33;;;23.90;18.10;;;;;;5080814;28;20454;-67
2022/09/01 08:16:21;;;;;;;8.80;7.50;;;24.40;15.10;;;;;;5081584;28;20457;-68
2022/09/01 08:18:48;;;;;;;10.17;8.40;;;24.20;15.40;;;;;;5081907;28;20448;-69
2022/09/01 08:21:16;;;;;;;8.90;7.20;;;24.80;14.80;;;;;;5081724;28;20473;-68
2022/09/01 08:23:43;;;;;;;9.40;6.97;;;25.60;12.60;;;;;;5080848;28;20457;-67
2022/09/01 08:26:14;;;;;;;8.37;6.93;;;25.50;11.70;;;;;;5074154;28;20457;-67
2022/09/01 08:28:42;;;;;;;7.87;6.60;;;24.90;11.90;;;;;;5080524;28;20459;-69
2022/09/01 08:31:10;;;;;;;7.37;6.57;;;24.40;12.90;;;;;;5088734;28;20513;-67
2022/09/01 08:33:37;;;;;;;8.13;6.90;;;23.90;13.50;;;;;;5081200;28;20620;-67
2022/09/01 08:36:06;;;;;;;9.77;6.40;;;23.40;13.80;;;;;;5076441;28;20513;-68
2022/09/01 08:38:34;;;;;;;8.30;6.03;;;22.90;15.20;;;;;;5079040;28;20525;-67
2022/09/01 08:41:02;;;;;;;8.13;6.90;;;22.50;16.30;;;;;;5089474;28;20472;-67
2022/09/01 08:43:45;;;;;;;10.10;7.00;;;22.00;16.90;;;;;;5085881;28;20998;-68
2022/09/01 08:46:17;;;;;;;9.17;6.77;;;21.60;18.30;;;;;;5076352;28;20455;-68
2022/09/01 08:48:49;;;;;;;7.60;6.63;;;21.20;19.00;;;;;;5085512;28;20452;-68
2022/09/01 08:51:23;;;;;;;10.73;6.60;;;20.90;19.80;;;;;;5077325;28;20537;-67
2022/09/01 08:54:00;;;;;;;11.10;8.00;;;20.70;20.80;;;;;;5072606;28;20856;-69
2022/09/01 08:56:28;;;;;;;9.40;7.70;;;20.60;21.20;;;;;;5073763;28;21028;-67
2022/09/01 08:58:57;;;;;;;8.13;7.00;;;20.50;21.70;;;;;;5076395;28;20538;-69
2022/09/01 09:01:34;;;;;;;9.90;7.60;;;20.40;21.60;;;;;;5069394;28;20473;-69
2022/09/01 09:04:12;;;;;;;9.37;6.80;;;20.40;21.60;;;;;;5087082;28;20536;-66
2022/09/01 09:06:47;;;;;;;7.40;6.17;;;21.50;21.80;;;;;;5086673;28;20761;-68
2022/09/01 09:09:14;;;;;;;9.87;6.30;;;24.20;16.70;;;;;;5079201;28;20500;-66
2022/09/01 09:11:54;;;;;;;8.57;5.43;;;24.70;13.50;;;;;;5083589;28;20996;-66
2022/09/01 09:14:34;;;;;;;9.60;5.57;;;24.40;13.60;;;;;;5083624;28;20472;-67
2022/09/01 09:17:01;;;;;;;10.90;7.33;;;24.30;14.40;;;;;;5085954;28;20452;-66
2022/09/01 09:19:30;;;;;;;7.27;6.03;;;24.40;12.90;;;;;;5085373;28;20837;-67
2022/09/01 09:21:59;;;;;;;8.10;6.40;;;26.30;11.40;;;;;;5074574;28;20859;-67
2022/09/01 09:24:45;;;;;;;9.97;6.30;;;28.20;7.60;;;;;;5085207;28;20476;-68
2022/09/01 09:27:18;;;;;;;7.23;6.00;;;28.00;6.50;;;;;;5086311;28;20672;-70
2022/09/01 09:29:49;;;;;;;7.27;5.73;;;28.30;6.10;;;;;;5070258;28;20510;-74
2022/09/01 09:32:17;;;;;;;6.40;5.10;;;27.70;6.00;;;;;;5067587;28;20471;-71
2022/09/01 09:34:44;;;;;;;7.83;5.10;;;28.00;5.90;;;;;;5055934;28;20554;-71
2022/09/01 09:37:26;;;;;;;6.13;4.90;;;28.20;5.60;;;;;;5058253;28;20469;-69
2022/09/01 09:40:10;;;;;;;7.83;5.93;;;30.10;3.30;;;;;;5071381;28;20857;-69
2022/09/01 09:42:38;;;;;;;8.43;6.13;;;29.50;2.40;;;;;;5062532;28;20478;-71
2022/09/01 09:45:22;;;;;;;7.30;5.47;;;27.80;4.70;;;;;;5063280;28;20500;-73
2022/09/01 09:47:49;;;;;;;6.40;5.30;;;26.60;6.80;;;;;;5057750;28;20453;-70
2022/09/01 09:50:23;;;;;;;6.73;5.77;;;25.80;8.20;;;;;;5059668;28;20556;-71
2022/09/01 09:52:51;;;;;;;7.57;5.60;;;25.20;9.80;;;;;;5064053;28;20463;-69
2022/09/01 09:55:23;;;;;;;8.00;6.07;;;24.80;10.70;;;;;;5067548;28;20473;-74
2022/09/01 09:57:53;;;;;;;6.73;5.30;;;24.80;11.20;;;;;;5065008;28;20500;-71
2022/09/01 10:00:24;;;;;;;7.23;5.70;;;24.80;12.00;;;;;;5066538;28;21018;-71
2022/09/01 10:02:55;;;;;;;7.60;5.80;;;24.50;11.90;;;;;;5067715;28;20482;-71
2022/09/01 10:05:31;;;;;;;7.20;5.90;;;24.10;12.10;;;;;;5065931;28;20886;-71
2022/09/01 10:07:59;;;;;;;7.20;5.90;;;23.80;13.30;;;;;;5064024;28;20469;-70
2022/09/01 10:10:31;;;;;;;8.33;5.17;;;23.50;14.20;;;;;;5048040;28;20511;-69
2022/09/01 10:12:59;;;;;;;7.17;5.50;;;23.20;14.50;;;;;;5066717;28;20456;-69
2022/09/01 10:15:32;;;;;;;6.90;5.60;;;23.00;14.80;;;;;;5065662;28;20981;-70
2022/09/01 10:18:05;;;;;;;7.00;5.30;;;22.70;14.90;;;;;;5065831;28;20836;-71
2022/09/01 10:20:37;;;;;;;7.10;5.90;;;22.40;15.60;;;;;;5059315;28;20459;-70
2022/09/01 10:23:04;;;;;;;6.67;4.90;;;22.30;16.10;;;;;;5066069;28;20453;-71
2022/09/01 10:25:34;;;;;;;9.10;5.40;;;22.20;15.70;;;;;;5067495;28;20476;-69
2022/09/01 10:28:09;;;;;;;9.27;5.40;;;22.20;16.30;;;;;;5056326;28;20511;-69
2022/09/01 10:30:42;;;;;;;7.30;5.30;;;22.50;15.90;;;;;;5067671;28;20497;-71
2022/09/01 10:33:10;;;;;;;8.40;5.13;;;23.00;15.40;;;;;;5053153;28;20453;-72
2022/09/01 10:35:43;;;;;;;6.93;5.13;;;23.40;13.90;;;;;;5074541;28;20996;-72
2022/09/01 10:38:14;;;;;;;9.37;5.70;;;23.60;13.20;;;;;;5065015;28;20453;-70
2022/09/01 10:40:44;;;;;;;6.67;4.90;;;23.50;13.80;;;;;;5063366;28;20467;-72
2022/09/01 10:43:35;;;;;;;6.23;4.70;;;23.50;13.70;;;;;;5064224;28;20461;-70
2022/09/01 10:46:44;;;;;;;7.47;5.23;;;23.20;13.20;;;;;;5067083;28;20481;-70
2022/09/01 10:49:34;;;;;;;9.67;4.70;;;23.00;13.60;;;;;;5079306;28;20930;-72
2022/09/01 10:52:01;;;;;;;7.17;5.80;;;23.10;14.20;;;;;;5051339;28;20817;-70
2022/09/01 10:54:53;;;;;;;7.00;5.50;;;23.00;14.20;;;;;;5060780;28;20482;-72
2022/09/01 10:57:38;;;;;;;7.60;5.53;;;23.30;14.70;;;;;;5063869;28;20843;-71
2022/09/01 11:00:46;;;;;;;6.37;4.57;;;26.20;9.80;;;;;;5069949;28;20518;-72
2022/09/01 11:04:01;;;;;;;8.00;5.47;;;26.60;8.60;;;;;;5070799;28;20480;-72
2022/09/01 11:07:04;;;;;;;7.87;4.80;;;25.50;10.00;;;;;;5070541;28;20478;-70
2022/09/01 11:09:34;;;;;;;7.03;5.57;;;24.80;11.60;;;;;;5071228;28;20453;-71
2022/09/01 11:12:28;;;;;;;6.33;4.77;;;24.80;11.80;;;;;;5065412;28;20514;-72
2022/09/01 11:14:58;;;;;;;8.30;6.47;;;24.80;12.20;;;;;;5073555;28;20500;-70
2022/09/01 11:17:28;;;;;;;6.60;5.30;;;24.90;12.30;;;;;;5069231;28;20453;-71
2022/09/01 11:20:04;;;;;;;6.67;5.07;;;24.70;12.10;;;;;;5069503;28;20584;-72
2022/09/01 11:22:37;;;;;;;6.50;5.50;;;24.60;12.10;;;;;;5070528;28;20771;-72
2022/09/01 11:25:39;;;;;;;8.97;5.60;;;24.60;11.80;;;;;;5064504;28;20466;-70
2022/09/01 11:28:40;;;;;;;6.20;4.93;;;24.50;11.90;;;;;;5066696;28;20449;-69
2022/09/01 11:31:33;;;;;;;7.00;4.77;;;24.30;12.10;;;;;;5058148;28;20468;-70
2022/09/01 11:37:17;;;;;;;6.90;4.30;;;23.80;12.90;;;;;;5078831;28;20472;-69
2022/09/01 11:39:49;;;;;;;7.13;5.80;;;24.20;13.60;;;;;;5084040;28;20519;-71
2022/09/01 11:42:23;;;;;;;6.97;4.97;;;24.40;13.60;;;;;;5086940;28;20468;-70
2022/09/01 11:44:56;;;;;;;7.93;6.20;;;24.70;13.20;;;;;;5085674;28;20478;-69
2022/09/01 11:47:26;;;;;;;6.47;5.50;;;24.60;11.90;;;;;;5075112;28;20461;-72
2022/09/01 11:49:56;;;;;;;6.10;4.40;;;24.40;11.20;;;;;;5080419;28;20449;-70
2022/09/01 11:52:26;;;;;;;7.50;5.70;;;24.30;11.80;;;;;;5078439;28;20453;-71
2022/09/01 11:54:54;;;;;;;7.07;4.67;;;24.20;11.60;;;;;;5084414;28;21088;-70
2022/09/01 11:57:26;;;;;;;7.67;5.30;;;24.10;13.00;;;;;;5075271;28;20462;-72
2022/09/01 11:59:53;;;;;;;9.43;6.00;;;24.20;13.30;;;;;;5070095;28;20458;-71
2022/09/01 12:02:23;;;;;;;6.73;4.90;;;24.20;13.20;;;;;;5082070;28;20561;-70
2022/09/01 12:04:53;;;;;;;6.83;5.30;;;24.20;13.40;;;;;;5076679;28;20473;-69
2022/09/01 12:07:38;;;;;;;7.63;4.40;;;24.20;12.10;;;;;;5079877;28;20494;-74
2022/09/01 12:10:15;;;;;;;6.57;4.63;;;24.10;11.50;;;;;;5072706;28;20536;-72
2022/09/01 12:12:42;;;;;;;6.83;4.73;;;23.80;11.70;;;;;;5076781;28;20441;-72
2022/09/01 12:15:16;;;;;;;6.60;5.00;;;23.70;12.10;;;;;;5084139;28;20859;-69
2022/09/01 12:17:43;;;;;;;6.57;4.90;;;23.50;12.20;;;;;;5084205;28;20951;-70
2022/09/01 12:20:23;;;;;;;6.77;4.93;;;23.40;12.60;;;;;;5081797;28;20452;-70
2022/09/01 12:22:51;;;;;;;6.73;4.97;;;23.20;12.90;;;;;;5078205;28;20471;-73
2022/09/01 12:25:27;;;;;;;6.57;5.03;;;23.20;13.10;;;;;;5079496;28;20499;-68
2022/09/01 12:27:55;;;;;;;6.57;5.27;;;23.20;13.30;;;;;;5077760;28;20829;-69
2022/09/01 12:30:23;;;;;;;6.40;5.23;;;23.40;14.10;;;;;;5070852;28;20549;-69
2022/09/01 12:32:50;;;;;;;6.80;5.37;;;23.50;13.30;;;;;;5073328;28;20536;-71
2022/09/01 12:35:21;;;;;;;7.37;5.03;;;23.40;13.00;;;;;;5077714;28;21009;-70
2022/09/01 12:37:49;;;;;;;8.37;4.27;;;23.20;12.50;;;;;;5084741;28;20503;-70
2022/09/01 12:40:32;;;;;;;6.77;4.17;;;23.10;13.00;;;;;;5079951;28;20465;-69
2022/09/01 12:42:59;;;;;;;5.30;3.70;;;23.00;13.50;;;;;;5072180;28;20484;-72
2022/09/01 12:45:41;;;;;;;6.77;4.63;;;23.00;13.30;;;;;;5077020;28;20469;-71
2022/09/01 12:48:24;;;;;;;6.93;5.23;;;23.10;13.10;;;;;;5083992;28;20464;-72
2022/09/01 12:50:52;;;;;;;6.20;4.97;;;22.90;12.50;;;;;;5077925;28;20956;-70
2022/09/01 12:53:27;;;;;;;7.50;5.67;;;22.80;13.00;;;;;;5084047;28;20452;-69
2022/09/01 12:56:21;;;;;;;7.43;5.10;;;22.70;13.80;;;;;;5076609;28;20476;-73
2022/09/01 12:58:52;;;;;;;6.30;4.33;;;22.60;14.30;;;;;;5076130;28;20975;-70
2022/09/01 13:01:28;;;;;;;6.27;4.63;;;22.70;13.80;;;;;;5108396;22;20489;-61
2022/09/01 13:04:14;;;;;;;9.00;4.37;;;22.80;14.10;;;;;;5108422;27;20457;-60
2022/09/01 13:06:41;;;;;;;8.27;5.13;;;23.00;14.50;;;;;;5084753;27;20454;-61
2022/09/01 13:09:08;;;;;;;8.70;6.10;;;22.90;14.20;;;;;;5126280;27;20538;-61
2022/09/01 13:11:36;;;;;;;6.90;5.57;;;22.70;14.30;;;;;;5109086;27;20467;-61
2022/09/01 13:14:03;;;;;;;7.60;5.33;;;22.50;14.60;;;;;;5108557;28;20459;-61
2022/09/01 13:16:29;;;;;;;7.80;6.47;;;22.40;15.30;;;;;;5108386;28;20457;-61
2022/09/01 13:18:56;;;;;;;8.80;5.77;;;22.50;15.80;;;;;;5100744;28;20463;-61
2022/09/01 13:21:23;;;;;;;8.63;6.80;;;22.60;16.00;;;;;;5106179;28;20471;-61
2022/09/01 13:23:50;;;;;;;7.00;5.43;;;22.80;15.90;;;;;;5094233;28;20474;-61
2022/09/01 13:26:17;;;;;;;7.07;5.40;;;22.90;15.80;;;;;;5104344;28;20950;-61
2022/09/01 13:28:45;;;;;;;7.70;6.10;;;23.10;14.70;;;;;;5093576;28;21077;-61
2022/09/01 13:31:13;;;;;;;7.93;5.90;;;23.00;14.80;;;;;;5096756;28;20534;-61
2022/09/01 13:33:40;;;;;;;7.17;5.70;;;23.20;14.80;;;;;;5098954;28;20443;-61
2022/09/01 13:36:07;;;;;;;7.10;5.07;;;23.20;14.70;;;;;;5105294;28;20459;-63
2022/09/01 13:38:34;;;;;;;11.87;5.83;;;23.30;14.70;;;;;;5098718;28;20460;-60
2022/09/01 13:41:01;;;;;;;7.83;5.70;;;23.40;14.30;;;;;;5099895;28;20483;-60
2022/09/01 13:43:30;;;;;;;7.63;4.87;;;23.40;13.90;;;;;;5099888;28;20503;-60
2022/09/01 13:45:58;;;;;;;7.60;4.90;;;23.40;14.20;;;;;;5092643;28;21093;-62
2022/09/01 13:48:27;;;;;;;7.00;5.43;;;23.40;14.30;;;;;;5099678;28;20458;-63
2022/09/01 13:50:54;;;;;;;6.87;4.93;;;23.50;14.30;;;;;;5107734;28;20467;-62
2022/09/01 13:53:21;;;;;;;5.93;4.53;;;23.50;14.00;;;;;;5105643;28;20455;-62
2022/09/01 13:55:49;;;;;;;6.73;4.70;;;23.40;14.20;;;;;;5107522;28;20454;-62
2022/09/01 13:58:16;;;;;;;9.40;4.43;;;23.40;13.90;;;;;;5098287;28;20448;-61
2022/09/01 14:00:45;;;;;;;7.27;4.97;;;23.40;13.50;;;;;;5104385;28;20829;-62
2022/09/01 14:03:17;;;;;;;7.57;4.53;;;23.50;13.20;;;;;;5097246;28;21206;-62
2022/09/01 14:05:46;;;;;;;8.10;3.80;;;23.50;12.00;;;;;;5102224;28;20485;-62
2022/09/01 14:08:15;;;;;;;6.07;3.97;;;23.40;11.30;;;;;;5103481;28;20490;-61
2022/09/01 14:10:44;;;;;;;6.40;4.20;;;23.30;11.60;;;;;;5102758;28;20879;-62
2022/09/01 14:13:11;;;;;;;6.43;3.93;;;23.20;11.80;;;;;;5103996;28;20451;-61
2022/09/01 14:15:39;;;;;;;4.80;3.47;;;23.20;12.20;;;;;;5107370;28;20949;-61
2022/09/01 14:18:06;;;;;;;5.80;4.10;;;23.20;11.70;;;;;;5097249;28;20457;-62
2022/09/01 14:20:38;;;;;;;5.57;3.50;;;23.10;11.90;;;;;;5100295;28;20459;-61
2022/09/01 14:23:06;;;;;;;6.20;3.60;;;23.10;11.50;;;;;;5102751;28;23021;-61
2022/09/01 14:25:34;;;;;;;6.20;3.53;;;23.00;12.10;;;;;;5112428;27;20466;-62
2022/09/01 14:28:02;;;;;;;5.53;3.50;;;23.00;12.40;;;;;;5102850;28;20993;-62
2022/09/01 14:30:32;;;;;;;6.50;4.10;;;22.90;12.80;;;;;;5108785;28;20458;-62
2022/09/01 14:32:59;;;;;;;6.70;4.17;;;22.90;13.40;;;;;;5107053;28;20448;-62
2022/09/01 14:35:25;;;;;;;7.77;4.47;;;22.80;13.30;;;;;;5106037;28;20451;-62
2022/09/01 14:37:55;;;;;;;5.80;4.13;;;22.70;13.10;;;;;;5106651;28;20447;-62
2022/09/01 14:40:23;;;;;;;7.20;4.30;;;22.60;13.60;;;;;;5109414;28;20453;-62
2022/09/01 14:42:51;;;;;;;8.20;5.90;;;22.50;14.50;;;;;;5108460;28;20472;-61
2022/09/01 14:45:19;;;;;;;6.80;5.40;;;22.60;15.60;;;;;;5110855;28;20451;-61
2022/09/01 14:47:47;;;;;;;8.00;5.80;;;22.60;15.90;;;;;;5098587;28;20455;-61
2022/09/01 14:50:15;;;;;;;6.97;5.47;;;22.70;16.00;;;;;;5107467;28;20454;-62
2022/09/01 14:52:42;;;;;;;7.80;5.43;;;22.70;16.00;;;;;;5100464;28;20507;-62
2022/09/01 14:55:10;;;;;;;6.77;4.70;;;22.70;15.80;;;;;;5101586;28;20447;-62
2022/09/01 14:57:37;;;;;;;6.17;5.30;;;22.70;15.60;;;;;;5093650;28;20485;-62
2022/09/01 15:00:08;;;;;;;6.60;4.83;;;22.60;15.90;;;;;;5102187;28;20451;-62
2022/09/01 15:02:35;;;;;;;6.03;4.20;;;22.60;15.70;;;;;;5090023;28;21241;-61
2022/09/01 15:05:02;;;;;;;7.70;4.83;;;22.60;15.50;;;;;;5099103;28;20464;-61
2022/09/01 15:07:29;;;;;;;6.67;4.80;;;22.60;15.50;;;;;;5094462;27;20458;-62
2022/09/01 15:09:57;;;;;;;6.57;4.70;;;22.60;15.70;;;;;;5094766;28;20456;-62
2022/09/01 15:12:29;;;;;;;6.10;4.47;;;22.70;15.50;;;;;;5104147;28;20521;-62
2022/09/01 15:14:56;;;;;;;9.60;4.70;;;22.70;15.20;;;;;;5092902;28;20452;-65
2022/09/01 15:17:23;;;;;;;5.60;3.93;;;22.80;14.90;;;;;;5087816;28;20483;-62
2022/09/01 15:19:50;;;;;;;8.27;4.50;;;22.80;14.90;;;;;;5098036;28;20861;-75
2022/09/01 15:22:17;;;;;;;5.40;3.93;;;22.80;14.90;;;;;;5083828;28;20503;-70
2022/09/01 15:24:43;;;;;;;6.40;4.60;;;22.70;14.30;;;;;;5096266;27;20455;-63
2022/09/01 15:27:11;;;;;;;5.97;4.00;;;22.70;14.60;;;;;;5095170;27;20460;-65
2022/09/01 15:29:44;;;;;;;7.20;4.90;;;22.70;14.70;;;;;;5088714;28;20963;-66
2022/09/01 15:32:11;;;;;;;5.57;4.13;;;22.70;14.90;;;;;;5093096;28;20493;-67
2022/09/01 15:34:39;;;;;;;14.63;10.33;;;22.60;14.40;;;;;;5095370;28;20468;-63
2022/09/01 15:37:07;;;;;;;13.03;10.00;;;22.60;15.30;;;;;;5094919;28;20463;-65
2022/09/01 15:39:35;;;;;;;67.13;45.40;;;22.70;15.30;;;;;;5098596;28;20460;-66
2022/09/01 15:42:02;;;;;;;61.87;42.87;;;22.70;15.10;;;;;;5087906;28;20504;-67
2022/09/01 15:44:29;;;;;;;6.50;4.50;;;22.60;14.50;;;;;;5091806;28;21047;-67
2022/09/01 15:46:57;;;;;;;8.33;4.90;;;22.50;14.90;;;;;;5091974;28;20536;-66
2022/09/01 15:49:24;;;;;;;6.10;4.63;;;22.40;14.90;;;;;;5093043;28;21518;-68
2022/09/01 15:51:56;;;;;;;6.90;4.40;;;22.40;15.50;;;;;;5090528;28;20505;-68
2022/09/01 15:54:24;;;;;;;5.53;3.80;;;22.30;15.80;;;;;;5089263;28;20879;-67
2022/09/01 15:56:51;;;;;;;5.90;4.07;;;22.30;15.80;;;;;;5092975;28;20464;-66
2022/09/01 15:59:18;;;;;;;6.97;5.10;;;22.20;15.80;;;;;;5088515;28;20469;-65
2022/09/01 16:01:46;;;;;;;8.13;6.43;;;22.20;15.80;;;;;;5085790;28;21014;-67
2022/09/01 16:04:16;;;;;;;9.20;7.90;;;22.10;15.90;;;;;;5089881;28;20486;-63
2022/09/01 16:06:43;;;;;;;29.93;26.20;;;22.10;16.30;;;;;;5099614;27;20462;-66
2022/09/01 16:09:11;;;;;;;15.73;8.00;;;22.10;16.70;;;;;;5094172;28;20541;-68
2022/09/01 16:11:39;;;;;;;6.97;5.00;;;22.00;16.80;;;;;;5092983;28;21000;-66
2022/09/01 16:14:06;;;;;;;21.00;18.77;;;22.00;16.80;;;;;;5089962;28;20460;-67
2022/09/01 16:16:44;;;;;;;13.10;11.70;;;21.90;16.30;;;;;;5089359;27;20467;-68
2022/09/01 16:19:23;;;;;;;13.10;8.93;;;21.80;16.30;;;;;;5084434;27;20457;-67
2022/09/01 16:21:56;;;;;;;26.37;23.50;;;21.80;16.30;;;;;;5091843;28;20470;-67
2022/09/01 16:24:24;;;;;;;10.93;9.23;;;21.70;16.80;;;;;;5090709;28;20467;-64
2022/09/01 16:26:51;;;;;;;14.50;12.70;;;21.60;16.70;;;;;;5088729;28;20525;-70
2022/09/01 16:29:27;;;;;;;10.20;9.00;;;21.60;16.70;;;;;;5089092;28;20468;-72
2022/09/01 16:31:55;;;;;;;97.90;88.07;;;21.50;16.50;;;;;;5083174;28;20486;-65
2022/09/01 16:34:24;;;;;;;22.63;20.30;;;21.40;16.60;;;;;;5087846;28;20467;-64
2022/09/01 16:37:01;;;;;;;7.70;5.70;;;21.40;17.20;;;;;;5090299;28;20463;-65
2022/09/01 16:39:34;;;;;;;21.40;18.67;;;21.30;16.40;;;;;;5091332;28;20466;-65
2022/09/01 16:42:12;;;;;;;6.57;4.30;;;21.30;16.80;;;;;;5096138;28;20475;-63
2022/09/01 16:44:50;;;;;;;6.60;4.33;;;21.20;17.30;;;;;;5098057;28;20876;-64
2022/09/01 16:47:33;;;;;;;6.23;3.80;;;21.20;16.50;;;;;;5097395;28;20451;-65
2022/09/01 16:50:13;;;;;;;7.20;4.10;;;21.10;16.70;;;;;;5097799;28;20487;-64
2022/09/01 16:52:56;;;;;;;6.67;4.10;;;21.10;16.90;;;;;;5089750;28;20851;-64
2022/09/01 16:55:31;;;;;;;5.57;3.77;;;21.00;17.10;;;;;;5094779;28;20473;-64
2022/09/01 16:58:04;;;;;;;6.90;4.70;;;20.90;17.30;;;;;;5096770;28;21001;-63
2022/09/01 17:00:40;;;;;;;5.50;4.13;;;20.90;17.50;;;;;;5091664;28;20456;-64
2022/09/01 17:03:16;;;;;;;6.53;5.00;;;20.90;17.80;;;;;;5084756;27;20487;-64
2022/09/01 17:05:53;;;;;;;6.70;4.27;;;20.90;18.00;;;;;;5094603;28;20462;-64
2022/09/01 17:08:24;;;;;;;8.50;4.13;;;20.70;18.10;;;;;;5094226;28;20466;-64
2022/09/01 17:10:56;;;;;;;6.47;4.20;;;20.70;18.40;;;;;;5091797;28;20480;-64
2022/09/01 17:13:36;;;;;;;5.30;3.63;;;20.70;18.60;;;;;;5083675;28;21011;-64
2022/09/01 17:16:10;;;;;;;5.93;3.70;;;20.60;18.80;;;;;;5099035;28;20508;-64
2022/09/01 17:18:39;;;;;;;6.80;4.47;;;20.50;19.00;;;;;;5092499;28;20466;-64
2022/09/01 17:21:13;;;;;;;5.73;3.70;;;20.40;19.30;;;;;;5091682;28;20480;-64
2022/09/01 17:23:48;;;;;;;7.33;4.00;;;20.40;19.40;;;;;;5088768;27;20487;-65
2022/09/01 17:26:21;;;;;;;6.30;4.23;;;20.30;19.60;;;;;;5089457;28;20463;-64
2022/09/01 17:28:54;;;;;;;5.40;4.10;;;20.30;19.60;;;;;;5086565;28;20484;-65
2022/09/01 17:31:32;;;;;;;5.47;4.37;;;20.20;19.70;;;;;;5090345;28;20563;-65
2022/09/01 17:34:08;;;;;;;5.20;3.90;;;20.20;19.80;;;;;;5088041;28;20467;-65
2022/09/01 17:36:47;;;;;;;5.07;3.67;;;20.10;19.80;;;;;;5086535;28;20842;-64
2022/09/01 17:39:26;;;;;;;7.13;3.97;;;20.00;19.90;;;;;;5090257;28;20491;-64
2022/09/01 17:41:56;;;;;;;6.53;3.70;;;20.00;20.00;;;;;;5087900;28;20998;-64
2022/09/01 17:44:30;;;;;;;6.43;4.47;;;19.90;20.00;;;;;;5095260;28;20512;-64
2022/09/01 17:47:00;;;;;;;6.80;4.43;;;19.80;20.00;;;;;;5094626;28;20455;-64
2022/09/01 17:49:35;;;;;;;5.63;3.70;;;19.80;20.10;;;;;;5097289;28;20452;-64
2022/09/01 17:52:13;;;;;;;6.83;4.27;;;19.70;20.20;;;;;;5100968;28;20501;-64
2022/09/01 17:54:46;;;;;;;7.37;4.40;;;19.70;20.30;;;;;;5095047;28;20458;-65
2022/09/01 17:57:22;;;;;;;5.20;3.63;;;19.60;20.50;;;;;;5098240;28;20827;-64
2022/09/01 17:59:58;;;;;;;6.47;3.77;;;19.50;20.80;;;;;;5093452;28;20456;-65
2022/09/01 18:02:57;;;;;;;6.20;4.43;;;19.50;20.90;;;;;;5090909;28;20494;-65
2022/09/01 18:05:25;;;;;;;5.77;3.80;;;19.40;21.10;;;;;;5090166;28;21032;-65
2022/09/01 18:08:15;;;;;;;5.53;3.90;;;19.30;21.10;;;;;;5090841;28;20452;-65
2022/09/01 18:10:49;;;;;;;6.33;4.27;;;19.30;21.50;;;;;;5094682;28;20528;-64
2022/09/01 18:13:23;;;;;;;5.30;4.00;;;19.20;21.40;;;;;;5098624;28;20456;-64
2022/09/01 18:15:52;;;;;;;5.67;3.80;;;19.20;21.70;;;;;;5093333;28;20460;-65
2022/09/01 18:18:34;;;;;;;5.77;3.83;;;19.10;21.90;;;;;;5091016;28;20456;-65
2022/09/01 18:21:05;;;;;;;8.27;4.93;;;19.00;22.30;;;;;;5093124;28;20475;-64
2022/09/01 18:23:42;;;;;;;6.43;3.90;;;19.00;22.50;;;;;;5097875;28;20475;-65
2022/09/01 18:26:16;;;;;;;5.57;4.50;;;18.90;23.20;;;;;;5091865;28;21093;-64
2022/09/01 18:28:43;;;;;;;5.93;4.27;;;18.80;23.20;;;;;;5095531;28;20455;-65
2022/09/01 18:31:21;;;;;;;7.60;5.00;;;18.80;23.20;;;;;;5099784;28;20475;-64
2022/09/01 18:34:01;;;;;;;6.70;4.80;;;18.70;23.40;;;;;;5088423;28;20972;-65
2022/09/01 18:36:38;;;;;;;6.10;4.60;;;18.70;23.50;;;;;;5089657;28;20466;-65
2022/09/01 18:39:11;;;;;;;7.10;4.57;;;18.60;23.60;;;;;;5087874;28;20881;-65
2022/09/01 18:41:50;;;;;;;6.00;3.83;;;18.60;23.80;;;;;;5089945;28;20476;-65
2022/09/01 18:44:33;;;;;;;9.23;4.60;;;18.50;24.00;;;;;;5094625;28;20482;-65
2022/09/01 18:47:03;;;;;;;8.10;4.30;;;18.50;24.30;;;;;;5091497;28;20553;-64
2022/09/01 18:49:39;;;;;;;6.00;4.20;;;18.40;24.50;;;;;;5091357;28;20471;-65
2022/09/01 18:52:21;;;;;;;6.67;4.30;;;18.40;24.80;;;;;;5093342;28;20474;-65
2022/09/01 18:55:00;;;;;;;7.47;4.20;;;18.30;25.10;;;;;;5096288;28;20458;-65
2022/09/01 18:57:35;;;;;;;7.53;4.63;;;18.30;25.50;;;;;;5092361;28;20474;-64
2022/09/01 19:00:08;;;;;;;7.30;4.30;;;18.20;25.50;;;;;;5088758;28;20995;-65
2022/09/01 19:02:55;;;;;;;7.87;5.63;;;18.20;25.80;;;;;;5086282;28;20954;-65
2022/09/01 19:05:32;;;;;;;6.90;4.80;;;18.10;26.20;;;;;;5092759;28;20497;-65
2022/09/01 19:08:04;;;;;;;8.23;6.10;;;18.00;26.30;;;;;;5088800;28;21029;-64
2022/09/01 19:10:37;;;;;;;7.37;5.67;;;18.00;26.60;;;;;;5095829;28;20456;-65
2022/09/01 19:13:11;;;;;;;7.23;5.80;;;17.90;26.90;;;;;;5096151;28;20967;-65
2022/09/01 19:15:45;;;;;;;6.90;5.13;;;17.90;27.10;;;;;;5092995;28;20452;-64
2022/09/01 19:18:19;;;;;;;9.07;5.17;;;17.80;27.20;;;;;;5095547;28;20488;-65
2022/09/01 19:20:51;;;;;;;10.20;5.10;;;17.80;27.20;;;;;;5087595;28;20851;-65
2022/09/01 19:23:25;;;;;;;7.13;5.30;;;17.80;27.50;;;;;;5086884;28;20950;-64
2022/09/01 19:25:58;;;;;;;7.50;4.40;;;17.70;27.90;;;;;;5095087;28;20460;-65
2022/09/01 19:28:41;;;;;;;5.97;4.40;;;17.70;28.20;;;;;;5095392;28;20458;-64
2022/09/01 19:31:16;;;;;;;6.67;4.83;;;17.60;28.40;;;;;;5095556;28;20499;-64
2022/09/01 19:33:46;;;;;;;6.83;5.13;;;17.60;28.20;;;;;;5093141;28;20462;-65
2022/09/01 19:36:20;;;;;;;6.97;4.90;;;17.50;28.10;;;;;;5091464;28;20493;-64
2022/09/01 19:38:47;;;;;;;8.77;5.10;;;17.50;28.00;;;;;;5099632;28;20460;-66
2022/09/01 19:41:22;;;;;;;6.77;4.60;;;17.50;27.80;;;;;;5086210;27;20484;-64
2022/09/01 19:43:55;;;;;;;7.10;5.33;;;17.50;27.80;;;;;;5091569;28;20482;-64
2022/09/01 19:46:29;;;;;;;7.80;4.77;;;17.40;27.90;;;;;;5096578;28;21313;-64
2022/09/01 19:49:01;;;;;;;10.27;6.10;;;17.40;28.10;;;;;;5091888;28;20456;-66
2022/09/01 19:51:32;;;;;;;7.63;5.30;;;17.40;28.10;;;;;;5093237;28;20483;-68
2022/09/01 19:54:02;;;;;;;6.43;5.10;;;17.40;28.00;;;;;;5088910;28;20460;-67
2022/09/01 19:56:37;;;;;;;7.17;5.10;;;17.30;28.30;;;;;;5096260;28;20462;-66
2022/09/01 19:59:14;;;;;;;8.70;5.67;;;17.30;28.50;;;;;;5091572;28;20454;-66
2022/09/01 20:01:47;;;;;;;7.80;5.50;;;17.20;28.60;;;;;;5089882;28;20475;-66
2022/09/01 20:04:26;;;;;;;8.10;6.20;;;17.20;28.90;;;;;;5097331;28;20559;-66
2022/09/01 20:06:57;;;;;;;8.87;5.80;;;17.10;29.10;;;;;;5098565;28;20466;-66
2022/09/01 20:09:31;;;;;;;8.47;5.80;;;17.10;29.20;;;;;;5095492;28;20512;-68
2022/09/01 20:12:09;;;;;;;6.20;4.87;;;17.00;30.10;;;;;;5087850;28;20484;-68
2022/09/01 20:14:57;;;;;;;6.87;4.70;;;17.00;30.10;;;;;;5093960;28;21267;-68